sensor_id;sensor_type;location;lat;lon;timestamp;pressure;altitude;pressure_sealevel;temperature;humidity
43071;BME280;36278;47.952;21.714;2023-04-26T00:02:12;99515.22;;;7.40;100.00
43071;BME280;36278;47.952;21.714;2023-04-26T00:04:38;99520.03;;;7.46;100.00
43071;BME280;36278;47.952;21.714;2023-04-26T00:07:04;99526.97;;;7.47;100.00
43071;BME280;36278;47.952;21.714;2023-04-26T00:09:30;99520.66;;;7.50;100.00
43071;BME280;36278;47.952;21.714;2023-04-26T00:11:56;99531.09;;;7.51;100.00
43071;BME280;36278;47.952;21.714;2023-04-26T00:14:21;99529.75;;;7.46;100.00
43071;BME280;36278;47.952;21.714;2023-04-26T00:16:47;99527.22;;;7.44;100.00
43071;BME280;36278;47.952;21.714;2023-04-26T00:19:12;99532.84;;;7.40;100.00
43071;BME280;36278;47.952;21.714;2023-04-26T00:21:38;99532.13;;;7.38;100.00
43071;BME280;36278;47.952;21.714;2023-04-26T00:24:06;99541.69;;;7.39;100.00
43071;BME280;36278;47.952;21.714;2023-04-26T00:26:32;99547.09;;;7.37;100.00
43071;BME280;36278;47.952;21.714;2023-04-26T00:28:58;99540.47;;;7.31;100.00
43071;BME280;36278;47.952;21.714;2023-04-26T00:31:24;99542.91;;;7.35;100.00
43071;BME280;36278;47.952;21.714;2023-04-26T00:33:50;99541.81;;;7.37;100.00
43071;BME280;36278;47.952;21.714;2023-04-26T00:36:15;99552.47;;;7.36;100.00
43071;BME280;36278;47.952;21.714;2023-04-26T00:38:44;99548.16;;;7.35;100.00
43071;BME280;36278;47.952;21.714;2023-04-26T00:41:10;99550.03;;;7.32;100.00
43071;BME280;36278;47.952;21.714;2023-04-26T00:43:35;99547.78;;;7.28;100.00
43071;BME280;36278;47.952;21.714;2023-04-26T00:46:01;99545.25;;;7.26;100.00
43071;BME280;36278;47.952;21.714;2023-04-26T00:48:26;99549.91;;;7.23;100.00
43071;BME280;36278;47.952;21.714;2023-04-26T00:50:52;99550.13;;;7.20;100.00
43071;BME280;36278;47.952;21.714;2023-04-26T00:53:17;99552.78;;;7.20;100.00
43071;BME280;36278;47.952;21.714;2023-04-26T00:55:43;99554.78;;;7.16;100.00
43071;BME280;36278;47.952;21.714;2023-04-26T00:58:09;99554.50;;;7.08;100.00
43071;BME280;36278;47.952;21.714;2023-04-26T01:00:35;99553.91;;;7.05;100.00
43071;BME280;36278;47.952;21.714;2023-04-26T01:03:00;99557.13;;;7.08;100.00
43071;BME280;36278;47.952;21.714;2023-04-26T01:05:26;99548.75;;;7.03;100.00
43071;BME280;36278;47.952;21.714;2023-04-26T01:07:52;99550.19;;;7.07;100.00
43071;BME280;36278;47.952;21.714;2023-04-26T01:10:17;99556.53;;;7.05;100.00
43071;BME280;36278;47.952;21.714;2023-04-26T01:12:43;99549.47;;;7.05;100.00
43071;BME280;36278;47.952;21.714;2023-04-26T01:15:09;99547.22;;;7.12;100.00
43071;BME280;36278;47.952;21.714;2023-04-26T01:17:35;99551.03;;;7.08;100.00
43071;BME280;36278;47.952;21.714;2023-04-26T01:20:02;99558.72;;;7.11;100.00
43071;BME280;36278;47.952;21.714;2023-04-26T01:22:31;99555.25;;;7.10;100.00
43071;BME280;36278;47.952;21.714;2023-04-26T01:24:58;99549.84;;;7.12;100.00
43071;BME280;36278;47.952;21.714;2023-04-26T01:27:25;99555.53;;;7.18;100.00
43071;BME280;36278;47.952;21.714;2023-04-26T01:29:51;99554.22;;;7.24;100.00
43071;BME280;36278;47.952;21.714;2023-04-26T01:32:16;99556.63;;;7.27;100.00
43071;BME280;36278;47.952;21.714;2023-04-26T01:34:42;99568.72;;;7.29;100.00
43071;BME280;36278;47.952;21.714;2023-04-26T01:37:07;99560.38;;;7.36;100.00
43071;BME280;36278;47.952;21.714;2023-04-26T01:39:33;99559.41;;;7.37;100.00
43071;BME280;36278;47.952;21.714;2023-04-26T01:42:01;99561.81;;;7.40;100.00
43071;BME280;36278;47.952;21.714;2023-04-26T01:44:27;99555.38;;;7.44;100.00
43071;BME280;36278;47.952;21.714;2023-04-26T01:46:52;99556.34;;;7.43;100.00
43071;BME280;36278;47.952;21.714;2023-04-26T01:49:18;99561.59;;;7.43;100.00
43071;BME280;36278;47.952;21.714;2023-04-26T01:51:43;99557.06;;;7.45;100.00
43071;BME280;36278;47.952;21.714;2023-04-26T01:54:09;99558.72;;;7.46;100.00
43071;BME280;36278;47.952;21.714;2023-04-26T01:56:34;99556.81;;;7.48;100.00
43071;BME280;36278;47.952;21.714;2023-04-26T01:59:00;99561.75;;;7.52;100.00
43071;BME280;36278;47.952;21.714;2023-04-26T02:01:25;99559.84;;;7.54;100.00
43071;BME280;36278;47.952;21.714;2023-04-26T02:03:51;99561.63;;;7.54;100.00
43071;BME280;36278;47.952;21.714;2023-04-26T02:06:16;99554.44;;;7.56;100.00
43071;BME280;36278;47.952;21.714;2023-04-26T02:08:42;99562.59;;;7.53;100.00
43071;BME280;36278;47.952;21.714;2023-04-26T02:11:07;99560.06;;;7.51;100.00
43071;BME280;36278;47.952;21.714;2023-04-26T02:13:33;99558.16;;;7.53;100.00
43071;BME280;36278;47.952;21.714;2023-04-26T02:15:58;99556.72;;;7.49;100.00
43071;BME280;36278;47.952;21.714;2023-04-26T02:18:24;99564.50;;;7.51;100.00
43071;BME280;36278;47.952;21.714;2023-04-26T02:20:50;99572.53;;;7.49;100.00
43071;BME280;36278;47.952;21.714;2023-04-26T02:23:16;99576.84;;;7.50;100.00
43071;BME280;36278;47.952;21.714;2023-04-26T02:25:44;99575.38;;;7.46;100.00
43071;BME280;36278;47.952;21.714;2023-04-26T02:28:10;99574.91;;;7.41;100.00
43071;BME280;36278;47.952;21.714;2023-04-26T02:30:35;99575.00;;;7.40;100.00
43071;BME280;36278;47.952;21.714;2023-04-26T02:33:00;99575.22;;;7.37;100.00
43071;BME280;36278;47.952;21.714;2023-04-26T02:35:26;99577.63;;;7.40;100.00
43071;BME280;36278;47.952;21.714;2023-04-26T02:37:51;99566.22;;;7.28;100.00
43071;BME280;36278;47.952;21.714;2023-04-26T02:40:18;99581.22;;;7.39;100.00
43071;BME280;36278;47.952;21.714;2023-04-26T02:42:44;99581.34;;;7.37;100.00
43071;BME280;36278;47.952;21.714;2023-04-26T02:45:09;99589.00;;;7.40;100.00
43071;BME280;36278;47.952;21.714;2023-04-26T02:47:35;99584.56;;;7.41;100.00
43071;BME280;36278;47.952;21.714;2023-04-26T02:50:03;99589.84;;;7.41;100.00
43071;BME280;36278;47.952;21.714;2023-04-26T02:52:29;99594.06;;;7.43;100.00
43071;BME280;36278;47.952;21.714;2023-04-26T02:54:54;99594.66;;;7.47;100.00
43071;BME280;36278;47.952;21.714;2023-04-26T02:57:20;99600.78;;;7.47;100.00
43071;BME280;36278;47.952;21.714;2023-04-26T02:59:45;99600.88;;;7.46;100.00
43071;BME280;36278;47.952;21.714;2023-04-26T03:02:11;99588.91;;;7.42;100.00
43071;BME280;36278;47.952;21.714;2023-04-26T03:04:36;99581.16;;;7.51;100.00
43071;BME280;36278;47.952;21.714;2023-04-26T03:07:03;99585.84;;;7.59;100.00
43071;BME280;36278;47.952;21.714;2023-04-26T03:09:28;99581.06;;;7.64;100.00
43071;BME280;36278;47.952;21.714;2023-04-26T03:11:54;99581.81;;;7.66;100.00
43071;BME280;36278;47.952;21.714;2023-04-26T03:14:19;99597.63;;;7.66;100.00
43071;BME280;36278;47.952;21.714;2023-04-26T03:16:45;99601.09;;;7.67;100.00
43071;BME280;36278;47.952;21.714;2023-04-26T03:19:12;99603.94;;;7.64;100.00
43071;BME280;36278;47.952;21.714;2023-04-26T03:21:38;99607.06;;;7.57;100.00
43071;BME280;36278;47.952;21.714;2023-04-26T03:24:04;99603.06;;;7.52;100.00
43071;BME280;36278;47.952;21.714;2023-04-26T03:26:29;99621.28;;;7.55;100.00
43071;BME280;36278;47.952;21.714;2023-04-26T03:28:55;99627.75;;;7.51;100.00
43071;BME280;36278;47.952;21.714;2023-04-26T03:31:20;99620.19;;;7.46;100.00
43071;BME280;36278;47.952;21.714;2023-04-26T03:33:47;99627.75;;;7.51;100.00
43071;BME280;36278;47.952;21.714;2023-04-26T03:36:12;99635.88;;;7.48;100.00
43071;BME280;36278;47.952;21.714;2023-04-26T03:38:38;99631.44;;;7.48;100.00
43071;BME280;36278;47.952;21.714;2023-04-26T03:41:03;99637.06;;;7.44;100.00
43071;BME280;36278;47.952;21.714;2023-04-26T03:43:29;99635.28;;;7.44;100.00
43071;BME280;36278;47.952;21.714;2023-04-26T03:45:54;99641.69;;;7.40;100.00
43071;BME280;36278;47.952;21.714;2023-04-26T03:48:20;99639.81;;;7.42;100.00
43071;BME280;36278;47.952;21.714;2023-04-26T03:50:45;99638.97;;;7.42;100.00
43071;BME280;36278;47.952;21.714;2023-04-26T03:53:11;99644.44;;;7.39;100.00
43071;BME280;36278;47.952;21.714;2023-04-26T03:55:37;99644.34;;;7.40;100.00
43071;BME280;36278;47.952;21.714;2023-04-26T03:58:02;99646.03;;;7.41;100.00
43071;BME280;36278;47.952;21.714;2023-04-26T04:00:33;99655.50;;;7.44;100.00
43071;BME280;36278;47.952;21.714;2023-04-26T04:03:01;99657.19;;;7.45;100.00
43071;BME280;36278;47.952;21.714;2023-04-26T04:05:26;99658.03;;;7.45;100.00
43071;BME280;36278;47.952;21.714;2023-04-26T04:07:51;99666.44;;;7.50;99.85
43071;BME280;36278;47.952;21.714;2023-04-26T04:10:17;99667.41;;;7.49;100.00
43071;BME280;36278;47.952;21.714;2023-04-26T04:12:42;99669.16;;;7.49;100.00
43071;BME280;36278;47.952;21.714;2023-04-26T04:15:09;99670.63;;;7.53;100.00
43071;BME280;36278;47.952;21.714;2023-04-26T04:17:34;99668.44;;;7.47;100.00
43071;BME280;36278;47.952;21.714;2023-04-26T04:20:01;99679.06;;;7.58;100.00
43071;BME280;36278;47.952;21.714;2023-04-26T04:22:29;99681.47;;;7.61;99.22
43071;BME280;36278;47.952;21.714;2023-04-26T04:24:54;99667.78;;;7.56;99.40
43071;BME280;36278;47.952;21.714;2023-04-26T04:27:20;99694.41;;;7.64;96.40
43071;BME280;36278;47.952;21.714;2023-04-26T04:29:46;99697.78;;;7.66;96.62
43071;BME280;36278;47.952;21.714;2023-04-26T04:32:12;99704.19;;;7.75;98.34
43071;BME280;36278;47.952;21.714;2023-04-26T04:34:39;99699.38;;;7.80;98.43
43071;BME280;36278;47.952;21.714;2023-04-26T04:37:05;99698.09;;;7.85;98.36
43071;BME280;36278;47.952;21.714;2023-04-26T04:39:31;99703.25;;;7.87;96.54
43071;BME280;36278;47.952;21.714;2023-04-26T04:41:56;99703.38;;;7.85;95.99
43071;BME280;36278;47.952;21.714;2023-04-26T04:44:22;99704.72;;;7.91;96.15
43071;BME280;36278;47.952;21.714;2023-04-26T04:46:48;99704.38;;;7.96;95.87
43071;BME280;36278;47.952;21.714;2023-04-26T04:49:13;99696.97;;;8.01;95.16
43071;BME280;36278;47.952;21.714;2023-04-26T04:51:40;99699.88;;;8.09;94.19
43071;BME280;36278;47.952;21.714;2023-04-26T04:54:15;99708.88;;;8.18;94.93
43071;BME280;36278;47.952;21.714;2023-04-26T04:56:42;99695.56;;;8.19;93.91
43071;BME280;36278;47.952;21.714;2023-04-26T04:59:08;99709.97;;;8.26;93.13
43071;BME280;36278;47.952;21.714;2023-04-26T05:01:34;99716.34;;;8.24;92.69
43071;BME280;36278;47.952;21.714;2023-04-26T05:04:00;99714.81;;;8.32;92.58
43071;BME280;36278;47.952;21.714;2023-04-26T05:06:26;99711.94;;;8.35;91.38
43071;BME280;36278;47.952;21.714;2023-04-26T05:08:52;99724.44;;;8.45;91.46
43071;BME280;36278;47.952;21.714;2023-04-26T05:11:19;99726.03;;;8.47;91.37
43071;BME280;36278;47.952;21.714;2023-04-26T05:13:45;99727.00;;;8.57;91.29
43071;BME280;36278;47.952;21.714;2023-04-26T05:16:11;99719.91;;;8.69;90.40
43071;BME280;36278;47.952;21.714;2023-04-26T05:18:36;99725.22;;;8.80;88.33
43071;BME280;36278;47.952;21.714;2023-04-26T05:21:01;99725.72;;;8.96;88.74
43071;BME280;36278;47.952;21.714;2023-04-26T05:23:27;99727.88;;;9.14;85.71
43071;BME280;36278;47.952;21.714;2023-04-26T05:25:53;99737.94;;;9.20;84.39
43071;BME280;36278;47.952;21.714;2023-04-26T05:28:18;99736.00;;;9.33;85.75
43071;BME280;36278;47.952;21.714;2023-04-26T05:30:45;99731.28;;;9.48;87.24
43071;BME280;36278;47.952;21.714;2023-04-26T05:33:10;99742.34;;;9.53;84.55
43071;BME280;36278;47.952;21.714;2023-04-26T05:35:36;99741.97;;;9.58;84.93
43071;BME280;36278;47.952;21.714;2023-04-26T05:38:01;99741.69;;;9.72;84.48
43071;BME280;36278;47.952;21.714;2023-04-26T05:40:28;99742.78;;;9.69;83.64
43071;BME280;36278;47.952;21.714;2023-04-26T05:42:54;99740.81;;;9.82;83.34
43071;BME280;36278;47.952;21.714;2023-04-26T05:45:19;99741.09;;;10.00;84.75
43071;BME280;36278;47.952;21.714;2023-04-26T05:47:45;99740.47;;;10.08;81.55
43071;BME280;36278;47.952;21.714;2023-04-26T05:50:12;99746.50;;;10.10;80.02
43071;BME280;36278;47.952;21.714;2023-04-26T05:52:37;99756.13;;;10.11;82.15
43071;BME280;36278;47.952;21.714;2023-04-26T05:55:03;99755.31;;;9.99;80.42
43071;BME280;36278;47.952;21.714;2023-04-26T05:57:30;99756.06;;;9.90;79.66
43071;BME280;36278;47.952;21.714;2023-04-26T05:59:55;99758.78;;;10.00;79.29
43071;BME280;36278;47.952;21.714;2023-04-26T06:02:21;99761.81;;;9.95;78.92
43071;BME280;36278;47.952;21.714;2023-04-26T06:04:47;99757.19;;;10.08;81.58
43071;BME280;36278;47.952;21.714;2023-04-26T06:07:12;99763.91;;;10.13;79.52
43071;BME280;36278;47.952;21.714;2023-04-26T06:09:38;99767.53;;;10.11;81.58
43071;BME280;36278;47.952;21.714;2023-04-26T06:12:04;99764.59;;;10.26;78.41
43071;BME280;36278;47.952;21.714;2023-04-26T06:14:29;99773.00;;;10.31;76.13
43071;BME280;36278;47.952;21.714;2023-04-26T06:16:55;99775.03;;;10.38;78.01
43071;BME280;36278;47.952;21.714;2023-04-26T06:19:21;99780.97;;;10.52;77.41
43071;BME280;36278;47.952;21.714;2023-04-26T06:21:46;99785.03;;;10.56;75.77
43071;BME280;36278;47.952;21.714;2023-04-26T06:24:13;99788.72;;;10.64;75.64
43071;BME280;36278;47.952;21.714;2023-04-26T06:26:39;99782.72;;;10.62;75.95
43071;BME280;36278;47.952;21.714;2023-04-26T06:29:05;99796.66;;;10.64;72.20
43071;BME280;36278;47.952;21.714;2023-04-26T06:31:31;99803.31;;;10.38;71.03
43071;BME280;36278;47.952;21.714;2023-04-26T06:33:56;99801.44;;;10.50;71.72
43071;BME280;36278;47.952;21.714;2023-04-26T06:36:22;99801.91;;;10.55;72.12
43071;BME280;36278;47.952;21.714;2023-04-26T06:38:47;99803.63;;;10.45;69.76
43071;BME280;36278;47.952;21.714;2023-04-26T06:41:13;99800.28;;;10.63;70.56
43071;BME280;36278;47.952;21.714;2023-04-26T06:43:38;99801.78;;;10.77;71.35
43071;BME280;36278;47.952;21.714;2023-04-26T06:46:04;99798.25;;;10.98;70.68
43071;BME280;36278;47.952;21.714;2023-04-26T06:48:30;99807.13;;;11.08;68.01
43071;BME280;36278;47.952;21.714;2023-04-26T06:50:55;99802.09;;;11.14;65.00
43071;BME280;36278;47.952;21.714;2023-04-26T06:53:21;99795.31;;;11.21;64.74
43071;BME280;36278;47.952;21.714;2023-04-26T06:55:47;99805.06;;;11.21;64.12
43071;BME280;36278;47.952;21.714;2023-04-26T06:58:12;99811.81;;;11.25;63.53
43071;BME280;36278;47.952;21.714;2023-04-26T07:00:37;99820.63;;;11.35;61.13
43071;BME280;36278;47.952;21.714;2023-04-26T07:03:03;99812.50;;;11.27;60.50
43071;BME280;36278;47.952;21.714;2023-04-26T07:05:29;99810.66;;;11.18;62.53
43071;BME280;36278;47.952;21.714;2023-04-26T07:07:54;99812.09;;;11.01;59.90
43071;BME280;36278;47.952;21.714;2023-04-26T07:10:20;99821.06;;;10.89;63.10
43071;BME280;36278;47.952;21.714;2023-04-26T07:12:46;99821.59;;;10.83;60.75
43071;BME280;36278;47.952;21.714;2023-04-26T07:15:12;99812.47;;;10.97;61.50
43071;BME280;36278;47.952;21.714;2023-04-26T07:17:37;99829.34;;;10.54;59.86
43071;BME280;36278;47.952;21.714;2023-04-26T07:20:03;99833.53;;;10.35;59.51
43071;BME280;36278;47.952;21.714;2023-04-26T07:22:30;99849.66;;;10.32;60.66
43071;BME280;36278;47.952;21.714;2023-04-26T07:24:55;99832.69;;;10.35;62.15
43071;BME280;36278;47.952;21.714;2023-04-26T07:27:21;99843.38;;;10.33;63.27
43071;BME280;36278;47.952;21.714;2023-04-26T07:29:47;99862.69;;;10.56;65.73
43071;BME280;36278;47.952;21.714;2023-04-26T07:32:13;99849.84;;;10.73;61.34
43071;BME280;36278;47.952;21.714;2023-04-26T07:34:39;99849.38;;;10.88;59.71
43071;BME280;36278;47.952;21.714;2023-04-26T07:37:05;99847.06;;;11.16;59.08
43071;BME280;36278;47.952;21.714;2023-04-26T07:39:31;99857.84;;;11.55;58.55
43071;BME280;36278;47.952;21.714;2023-04-26T07:41:56;99855.31;;;11.53;58.24
43071;BME280;36278;47.952;21.714;2023-04-26T07:44:22;99860.28;;;11.67;57.87
43071;BME280;36278;47.952;21.714;2023-04-26T07:46:47;99861.50;;;11.63;58.21
43071;BME280;36278;47.952;21.714;2023-04-26T07:49:13;99866.06;;;11.51;55.99
43071;BME280;36278;47.952;21.714;2023-04-26T07:51:39;99861.78;;;11.30;55.98
43071;BME280;36278;47.952;21.714;2023-04-26T07:54:05;99869.59;;;11.31;57.12
43071;BME280;36278;47.952;21.714;2023-04-26T07:56:30;99866.78;;;11.54;60.22
43071;BME280;36278;47.952;21.714;2023-04-26T07:58:56;99858.41;;;11.58;59.32
43071;BME280;36278;47.952;21.714;2023-04-26T08:01:21;99870.25;;;11.54;58.41
43071;BME280;36278;47.952;21.714;2023-04-26T08:03:47;99872.69;;;11.67;60.28
43071;BME280;36278;47.952;21.714;2023-04-26T08:06:13;99884.19;;;11.77;57.19
43071;BME280;36278;47.952;21.714;2023-04-26T08:08:39;99876.19;;;11.98;55.53
43071;BME280;36278;47.952;21.714;2023-04-26T08:11:09;99873.91;;;11.63;55.00
43071;BME280;36278;47.952;21.714;2023-04-26T08:13:35;99885.81;;;11.99;55.70
43071;BME280;36278;47.952;21.714;2023-04-26T08:16:01;99892.47;;;11.84;55.89
43071;BME280;36278;47.952;21.714;2023-04-26T08:18:26;99888.56;;;11.88;53.83
43071;BME280;36278;47.952;21.714;2023-04-26T08:20:52;99890.47;;;12.06;53.20
43071;BME280;36278;47.952;21.714;2023-04-26T08:23:20;99884.16;;;12.07;53.61
43071;BME280;36278;47.952;21.714;2023-04-26T08:25:46;99886.38;;;12.02;52.80
43071;BME280;36278;47.952;21.714;2023-04-26T08:28:14;99898.75;;;12.23;55.99
43071;BME280;36278;47.952;21.714;2023-04-26T08:30:40;99896.34;;;12.29;52.90
43071;BME280;36278;47.952;21.714;2023-04-26T08:33:06;99894.97;;;12.45;52.85
43071;BME280;36278;47.952;21.714;2023-04-26T08:35:32;99879.47;;;12.59;52.45
43071;BME280;36278;47.952;21.714;2023-04-26T08:38:00;99892.31;;;12.93;51.32
43071;BME280;36278;47.952;21.714;2023-04-26T08:40:25;99890.19;;;13.26;52.50
43071;BME280;36278;47.952;21.714;2023-04-26T08:42:51;99878.44;;;13.38;51.44
43071;BME280;36278;47.952;21.714;2023-04-26T08:45:21;99897.47;;;13.33;51.80
43071;BME280;36278;47.952;21.714;2023-04-26T08:47:48;99892.44;;;13.11;51.51
43071;BME280;36278;47.952;21.714;2023-04-26T08:50:15;99909.94;;;13.13;49.38
43071;BME280;36278;47.952;21.714;2023-04-26T08:52:41;99907.84;;;13.36;48.63
43071;BME280;36278;47.952;21.714;2023-04-26T08:55:10;99898.75;;;13.66;48.47
43071;BME280;36278;47.952;21.714;2023-04-26T08:57:41;99907.81;;;13.17;46.71
43071;BME280;36278;47.952;21.714;2023-04-26T09:00:07;99909.28;;;13.58;47.70
43071;BME280;36278;47.952;21.714;2023-04-26T09:02:34;99902.38;;;13.75;49.51
43071;BME280;36278;47.952;21.714;2023-04-26T09:05:00;99912.31;;;13.07;47.68
43071;BME280;36278;47.952;21.714;2023-04-26T09:07:30;99911.00;;;13.50;48.09
43071;BME280;36278;47.952;21.714;2023-04-26T09:09:58;99904.44;;;13.81;46.41
43071;BME280;36278;47.952;21.714;2023-04-26T09:12:24;99906.38;;;13.61;46.62
43071;BME280;36278;47.952;21.714;2023-04-26T09:14:50;99896.38;;;13.07;46.84
43071;BME280;36278;47.952;21.714;2023-04-26T09:17:35;99914.97;;;13.26;47.55
43071;BME280;36278;47.952;21.714;2023-04-26T09:22:46;99915.94;;;13.15;47.84
43071;BME280;36278;47.952;21.714;2023-04-26T09:25:16;99913.59;;;13.22;46.79
43071;BME280;36278;47.952;21.714;2023-04-26T09:27:43;99914.78;;;13.57;49.36
43071;BME280;36278;47.952;21.714;2023-04-26T09:30:16;99915.75;;;13.56;48.35
43071;BME280;36278;47.952;21.714;2023-04-26T09:33:02;99914.94;;;13.83;49.04
43071;BME280;36278;47.952;21.714;2023-04-26T09:35:40;99916.13;;;13.70;47.79
43071;BME280;36278;47.952;21.714;2023-04-26T09:38:07;99922.13;;;14.10;46.41
43071;BME280;36278;47.952;21.714;2023-04-26T09:40:35;99919.53;;;13.90;44.89
43071;BME280;36278;47.952;21.714;2023-04-26T09:43:05;99940.19;;;13.32;48.37
43071;BME280;36278;47.952;21.714;2023-04-26T09:45:42;99927.84;;;13.40;47.75
43071;BME280;36278;47.952;21.714;2023-04-26T09:50:43;99928.25;;;13.83;46.03
43071;BME280;36278;47.952;21.714;2023-04-26T09:56:13;99940.78;;;14.00;49.15
43071;BME280;36278;47.952;21.714;2023-04-26T10:01:22;99921.78;;;14.40;45.46
43071;BME280;36278;47.952;21.714;2023-04-26T10:03:48;99930.31;;;14.26;45.95
43071;BME280;36278;47.952;21.714;2023-04-26T10:06:15;99933.47;;;13.37;46.73
43071;BME280;36278;47.952;21.714;2023-04-26T10:08:41;99936.53;;;13.80;46.72
43071;BME280;36278;47.952;21.714;2023-04-26T10:11:08;99945.75;;;14.40;46.80
43071;BME280;36278;47.952;21.714;2023-04-26T10:13:39;99931.91;;;14.37;44.94
43071;BME280;36278;47.952;21.714;2023-04-26T10:16:09;99933.13;;;14.52;44.19
43071;BME280;36278;47.952;21.714;2023-04-26T10:18:36;99938.59;;;13.95;44.55
43071;BME280;36278;47.952;21.714;2023-04-26T10:21:29;99947.50;;;13.77;45.42
43071;BME280;36278;47.952;21.714;2023-04-26T10:23:58;99930.28;;;13.98;45.10
43071;BME280;36278;47.952;21.714;2023-04-26T10:26:47;99929.56;;;14.34;44.69
43071;BME280;36278;47.952;21.714;2023-04-26T10:29:14;99939.72;;;14.48;45.31
43071;BME280;36278;47.952;21.714;2023-04-26T10:34:28;99937.91;;;14.48;45.23
43071;BME280;36278;47.952;21.714;2023-04-26T10:37:15;99931.13;;;14.54;45.16
43071;BME280;36278;47.952;21.714;2023-04-26T10:39:42;99921.06;;;14.66;44.52
43071;BME280;36278;47.952;21.714;2023-04-26T10:42:23;99930.91;;;15.01;44.05
43071;BME280;36278;47.952;21.714;2023-04-26T10:44:53;99933.94;;;15.06;43.43
43071;BME280;36278;47.952;21.714;2023-04-26T10:49:49;99931.28;;;14.88;43.93
43071;BME280;36278;47.952;21.714;2023-04-26T10:52:16;99936.69;;;14.61;45.08
43071;BME280;36278;47.952;21.714;2023-04-26T10:57:10;99926.69;;;14.98;44.37
43071;BME280;36278;47.952;21.714;2023-04-26T10:59:36;99925.50;;;15.36;43.53
43071;BME280;36278;47.952;21.714;2023-04-26T11:02:02;99936.81;;;15.12;43.52
43071;BME280;36278;47.952;21.714;2023-04-26T11:04:53;99923.56;;;15.64;41.08
43071;BME280;36278;47.952;21.714;2023-04-26T11:07:37;99932.31;;;15.83;41.69
43071;BME280;36278;47.952;21.714;2023-04-26T11:10:07;99924.75;;;16.12;40.20
43071;BME280;36278;47.952;21.714;2023-04-26T11:12:34;99923.19;;;16.44;39.73
43071;BME280;36278;47.952;21.714;2023-04-26T11:15:00;99919.22;;;16.48;41.35
43071;BME280;36278;47.952;21.714;2023-04-26T11:17:26;99925.34;;;16.32;41.85
43071;BME280;36278;47.952;21.714;2023-04-26T11:19:51;99929.84;;;16.32;41.21
43071;BME280;36278;47.952;21.714;2023-04-26T11:22:20;99932.84;;;16.87;41.02
43071;BME280;36278;47.952;21.714;2023-04-26T11:24:46;99942.00;;;17.58;38.73
43071;BME280;36278;47.952;21.714;2023-04-26T11:27:12;99933.34;;;17.23;39.77
43071;BME280;36278;47.952;21.714;2023-04-26T11:29:38;99930.53;;;16.34;39.58
43071;BME280;36278;47.952;21.714;2023-04-26T11:32:04;99938.31;;;17.43;40.77
43071;BME280;36278;47.952;21.714;2023-04-26T11:34:32;99938.28;;;17.83;39.91
43071;BME280;36278;47.952;21.714;2023-04-26T11:36:58;99942.00;;;18.21;38.64
43071;BME280;36278;47.952;21.714;2023-04-26T11:39:26;99926.91;;;18.20;38.04
43071;BME280;36278;47.952;21.714;2023-04-26T11:42:03;99937.00;;;18.49;36.56
43071;BME280;36278;47.952;21.714;2023-04-26T11:44:30;99935.66;;;18.14;35.12
43071;BME280;36278;47.952;21.714;2023-04-26T11:46:56;99949.13;;;17.98;37.01
43071;BME280;36278;47.952;21.714;2023-04-26T11:49:22;99940.97;;;17.67;36.64
43071;BME280;36278;47.952;21.714;2023-04-26T11:51:48;99949.38;;;17.48;37.32
43071;BME280;36278;47.952;21.714;2023-04-26T11:54:32;99947.47;;;18.36;36.33
43071;BME280;36278;47.952;21.714;2023-04-26T11:56:58;99942.47;;;18.56;36.28
43071;BME280;36278;47.952;21.714;2023-04-26T11:59:28;99942.22;;;19.20;35.63
43071;BME280;36278;47.952;21.714;2023-04-26T12:01:57;99931.94;;;19.09;34.00
43071;BME280;36278;47.952;21.714;2023-04-26T12:04:29;99930.84;;;19.70;34.62
43071;BME280;36278;47.952;21.714;2023-04-26T12:06:56;99950.31;;;20.02;33.24
43071;BME280;36278;47.952;21.714;2023-04-26T12:09:23;99940.63;;;20.88;32.93
43071;BME280;36278;47.952;21.714;2023-04-26T12:12:07;99933.25;;;21.67;32.11
43071;BME280;36278;47.952;21.714;2023-04-26T12:14:35;99934.34;;;21.79;30.75
43071;BME280;36278;47.952;21.714;2023-04-26T12:17:02;99927.53;;;20.12;32.51
43071;BME280;36278;47.952;21.714;2023-04-26T12:19:35;99939.28;;;18.61;34.71
43071;BME280;36278;47.952;21.714;2023-04-26T12:22:01;99948.66;;;17.86;37.84
43071;BME280;36278;47.952;21.714;2023-04-26T12:24:29;99940.50;;;18.81;36.58
43071;BME280;36278;47.952;21.714;2023-04-26T12:27:02;99949.16;;;18.29;36.40
43071;BME280;36278;47.952;21.714;2023-04-26T12:29:29;99945.69;;;19.05;34.86
43071;BME280;36278;47.952;21.714;2023-04-26T12:31:59;99942.25;;;19.87;34.34
43071;BME280;36278;47.952;21.714;2023-04-26T12:34:25;99955.31;;;20.20;33.51
43071;BME280;36278;47.952;21.714;2023-04-26T12:36:51;99954.25;;;18.47;34.62
43071;BME280;36278;47.952;21.714;2023-04-26T12:39:17;99941.69;;;17.45;37.68
43071;BME280;36278;47.952;21.714;2023-04-26T12:41:43;99944.78;;;16.50;39.60
43071;BME280;36278;47.952;21.714;2023-04-26T12:44:10;99950.47;;;16.05;39.42
43071;BME280;36278;47.952;21.714;2023-04-26T12:46:36;99950.09;;;16.00;40.64
43071;BME280;36278;47.952;21.714;2023-04-26T12:49:02;99943.88;;;16.92;38.50
43071;BME280;36278;47.952;21.714;2023-04-26T12:51:28;99938.66;;;17.56;38.34
43071;BME280;36278;47.952;21.714;2023-04-26T12:53:54;99935.13;;;17.63;36.84
43071;BME280;36278;47.952;21.714;2023-04-26T12:56:20;99940.38;;;17.08;39.68
43071;BME280;36278;47.952;21.714;2023-04-26T12:58:47;99941.94;;;16.60;39.16
43071;BME280;36278;47.952;21.714;2023-04-26T13:01:14;99955.63;;;16.41;39.34
43071;BME280;36278;47.952;21.714;2023-04-26T13:03:40;99955.19;;;16.19;39.63
43071;BME280;36278;47.952;21.714;2023-04-26T13:06:07;99961.81;;;15.55;40.97
43071;BME280;36278;47.952;21.714;2023-04-26T13:08:33;99945.91;;;15.46;41.40